createdAt,value
2022-10-25T00:01:22.925Z,20.70
2022-10-25T00:03:50.909Z,20.70
2022-10-25T00:06:19.122Z,20.70
2022-10-25T00:08:47.177Z,20.70
2022-10-25T00:11:20.986Z,20.80
2022-10-25T00:13:51.914Z,20.90
2022-10-25T00:16:22.663Z,20.90
2022-10-25T00:18:50.904Z,20.90
2022-10-25T00:21:19.350Z,20.90
2022-10-25T00:23:47.612Z,20.90
2022-10-25T00:26:15.822Z,20.90
2022-10-25T00:28:43.867Z,20.90
2022-10-25T00:31:14.492Z,20.70
2022-10-25T00:33:43.420Z,20.60
2022-10-25T00:36:12.991Z,20.60
2022-10-25T00:38:41.565Z,20.80
2022-10-25T00:41:11.637Z,20.80
2022-10-25T00:43:41.653Z,20.80
2022-10-25T00:46:15.225Z,20.80
2022-10-25T00:48:46.010Z,20.80
2022-10-25T00:51:14.017Z,20.80
2022-10-25T00:53:43.549Z,20.80
2022-10-25T00:56:17.578Z,20.80
2022-10-25T00:58:50.400Z,20.70
2022-10-25T01:01:20.128Z,20.80
2022-10-25T01:03:51.966Z,20.80
2022-10-25T01:06:24.278Z,20.80
2022-10-25T01:08:53.710Z,20.80
2022-10-25T01:11:21.772Z,20.80
2022-10-25T01:13:50.466Z,20.90
2022-10-25T01:16:28.375Z,20.90
2022-10-25T01:19:06.373Z,20.70
2022-10-25T01:21:45.408Z,20.80
2022-10-25T01:24:40.453Z,20.80
2022-10-25T01:27:37.085Z,20.80
2022-10-25T01:30:10.056Z,20.90
2022-10-25T01:32:48.299Z,20.90
2022-10-25T01:35:26.648Z,20.90
2022-10-25T01:38:08.197Z,20.90
2022-10-25T01:40:46.373Z,20.90
2022-10-25T01:43:24.351Z,20.80
2022-10-25T01:45:59.366Z,20.80
2022-10-25T01:48:34.067Z,20.90
2022-10-25T01:51:10.093Z,20.80
2022-10-25T01:53:49.492Z,20.40
2022-10-25T01:56:25.183Z,19.80
2022-10-25T01:59:08.900Z,19.50
2022-10-25T02:04:24.494Z,19.40
2022-10-25T02:07:00.653Z,19.40
2022-10-25T02:09:34.645Z,19.20
2022-10-25T02:12:06.099Z,19.20
2022-10-25T02:14:38.634Z,18.90
2022-10-25T02:17:12.348Z,18.50
2022-10-25T02:19:44.923Z,18.40
2022-10-25T02:22:15.541Z,18.40
2022-10-25T02:24:46.619Z,18.30
2022-10-25T02:27:15.374Z,18.30
2022-10-25T02:29:45.656Z,18.00
2022-10-25T02:32:13.882Z,18.00
2022-10-25T02:34:43.263Z,18.10
2022-10-25T02:37:11.201Z,18.00
2022-10-25T02:42:23.807Z,17.90
2022-10-25T02:44:51.726Z,17.80
2022-10-25T02:47:19.693Z,17.90
2022-10-25T02:49:49.022Z,18.00
2022-10-25T02:52:16.934Z,18.10
2022-10-25T02:54:44.934Z,18.10
2022-10-25T02:57:12.894Z,17.90
2022-10-25T02:59:41.013Z,17.80
2022-10-25T03:02:08.974Z,17.90
2022-10-25T03:04:37.027Z,17.80
2022-10-25T03:07:06.346Z,17.90
2022-10-25T03:09:34.286Z,17.90
2022-10-25T03:12:02.240Z,17.90
2022-10-25T03:14:30.189Z,17.80
2022-10-25T03:16:58.209Z,17.80
2022-10-25T03:19:26.157Z,17.80
2022-10-25T03:21:54.128Z,17.90
2022-10-25T03:24:23.489Z,18.00
2022-10-25T03:26:51.433Z,17.80
2022-10-25T03:29:19.700Z,17.90
2022-10-25T03:31:47.676Z,17.70
2022-10-25T03:34:15.629Z,17.60
2022-10-25T03:36:43.561Z,17.60
2022-10-25T03:39:11.726Z,17.60
2022-10-25T03:41:40.977Z,17.60
2022-10-25T03:44:08.893Z,17.50
2022-10-25T03:46:36.828Z,17.40
2022-10-25T03:49:04.757Z,17.50
2022-10-25T03:51:32.670Z,17.50
2022-10-25T03:54:00.635Z,17.70
2022-10-25T03:56:28.574Z,17.80
2022-10-25T03:58:57.856Z,17.60
2022-10-25T04:01:25.961Z,17.60
2022-10-25T04:03:53.951Z,17.60
2022-10-25T04:06:21.921Z,17.60
2022-10-25T04:08:49.842Z,17.50
2022-10-25T04:11:17.752Z,17.40
2022-10-25T04:13:45.669Z,17.40
2022-10-25T04:16:19.056Z,17.40
2022-10-25T04:18:47.222Z,17.40
2022-10-25T04:21:15.184Z,17.50
2022-10-25T04:23:43.078Z,17.40
2022-10-25T04:26:11.017Z,17.50
2022-10-25T04:28:38.952Z,17.50
2022-10-25T04:31:07.078Z,17.40
2022-10-25T04:33:36.463Z,17.40
2022-10-25T04:36:04.630Z,17.40
2022-10-25T04:38:32.571Z,17.30
2022-10-25T04:41:02.063Z,17.40
2022-10-25T04:43:30.383Z,17.60
2022-10-25T04:46:01.377Z,17.80
2022-10-25T04:48:29.448Z,17.70
2022-10-25T04:51:00.725Z,17.60
2022-10-25T04:53:28.709Z,17.60
2022-10-25T04:55:57.802Z,17.60
2022-10-25T04:58:30.354Z,17.80
2022-10-25T05:01:01.591Z,17.70
2022-10-25T05:03:29.831Z,17.70
2022-10-25T05:06:08.058Z,17.80
2022-10-25T05:08:36.205Z,17.70
2022-10-25T05:11:04.203Z,17.70
2022-10-25T05:13:36.358Z,17.70
2022-10-25T05:16:05.317Z,17.60
2022-10-25T05:18:34.309Z,17.50
2022-10-25T05:21:04.454Z,17.60
2022-10-25T05:23:35.533Z,17.50
2022-10-25T05:26:05.538Z,17.40
2022-10-25T05:28:33.996Z,17.40
2022-10-25T05:31:05.101Z,17.30
2022-10-25T05:33:33.777Z,17.30
2022-10-25T05:36:02.567Z,17.20
2022-10-25T05:38:34.227Z,17.10
2022-10-25T05:41:07.960Z,17.00
2022-10-25T05:43:35.899Z,17.10
2022-10-25T05:46:06.015Z,17.10
2022-10-25T05:48:35.664Z,16.90
2022-10-25T05:51:28.841Z,17.00
2022-10-25T05:54:01.807Z,17.10
2022-10-25T05:56:32.313Z,17.10
2022-10-25T05:59:03.501Z,17.10
2022-10-25T06:01:31.548Z,17.10
2022-10-25T06:03:59.560Z,17.10
2022-10-25T06:06:27.513Z,17.10
2022-10-25T06:08:58.203Z,17.10
2022-10-25T06:11:27.019Z,17.00
2022-10-25T06:13:56.574Z,17.10
2022-10-25T06:16:25.129Z,17.40
2022-10-25T06:18:54.153Z,17.40
2022-10-25T06:21:24.065Z,17.40
2022-10-25T06:23:52.947Z,17.60
2022-10-25T06:26:24.581Z,17.60
2022-10-25T06:28:54.744Z,17.60
2022-10-25T06:31:24.631Z,17.30
2022-10-25T06:33:52.689Z,17.30
2022-10-25T06:36:23.212Z,17.40
2022-10-25T06:38:52.343Z,17.30
2022-10-25T06:41:21.929Z,17.40
2022-10-25T06:43:50.469Z,17.40
2022-10-25T06:46:22.484Z,17.40
2022-10-25T06:48:52.963Z,17.50
2022-10-25T06:51:21.521Z,17.50
2022-10-25T06:53:54.220Z,17.60
2022-10-25T06:56:22.181Z,17.70
2022-10-25T06:58:50.211Z,17.50
2022-10-25T07:01:20.397Z,17.50
2022-10-25T07:03:50.662Z,17.50
2022-10-25T07:06:23.034Z,17.60
2022-10-25T07:08:54.613Z,17.60
2022-10-25T07:11:23.706Z,17.70
2022-10-25T07:13:51.712Z,17.40
2022-10-25T07:16:24.741Z,17.50
2022-10-25T07:18:52.963Z,17.50
2022-10-25T07:21:23.589Z,17.40
2022-10-25T07:23:52.281Z,17.50
2022-10-25T07:26:22.193Z,17.70
2022-10-25T07:28:51.597Z,17.70
2022-10-25T07:31:21.947Z,17.50
2022-10-25T07:33:50.483Z,17.60
2022-10-25T07:36:18.679Z,17.40
2022-10-25T07:38:48.310Z,17.60
2022-10-25T07:41:16.592Z,17.60
2022-10-25T07:43:44.819Z,17.70
2022-10-25T07:46:12.882Z,17.60
2022-10-25T07:48:41.162Z,17.60
2022-10-25T07:51:12.369Z,17.80
2022-10-25T07:53:40.492Z,17.70
2022-10-25T07:56:16.195Z,17.70
2022-10-25T07:58:47.068Z,17.90
2022-10-25T08:01:19.687Z,17.90
2022-10-25T08:03:47.730Z,17.80
2022-10-25T08:06:15.686Z,18.00
2022-10-25T08:08:43.869Z,18.10
2022-10-25T08:11:13.360Z,18.20
2022-10-25T08:13:41.827Z,18.10
2022-10-25T08:16:10.056Z,18.10
2022-10-25T08:18:37.997Z,18.20
2022-10-25T08:21:06.415Z,18.20
2022-10-25T08:23:34.575Z,18.20
2022-10-25T08:26:03.156Z,18.20
2022-10-25T08:28:32.969Z,18.20
2022-10-25T08:31:01.896Z,18.20
2022-10-25T08:33:30.351Z,18.20
2022-10-25T08:36:01.380Z,18.30
2022-10-25T08:38:29.393Z,18.30
2022-10-25T08:41:04.811Z,18.30
2022-10-25T08:44:03.004Z,18.30
2022-10-25T08:46:34.567Z,18.10
2022-10-25T08:49:11.428Z,18.10
2022-10-25T08:51:42.920Z,18.20
2022-10-25T08:54:26.234Z,18.00
2022-10-25T08:57:15.116Z,17.90
2022-10-25T08:59:50.802Z,17.90
2022-10-25T09:02:25.229Z,18.10
2022-10-25T09:04:54.106Z,18.20
2022-10-25T09:07:58.493Z,18.30
2022-10-25T09:10:42.820Z,18.40
2022-10-25T09:13:20.817Z,18.60
2022-10-25T09:15:59.330Z,18.70
2022-10-25T09:18:37.567Z,18.80
2022-10-25T09:21:15.582Z,18.80
2022-10-25T09:23:59.157Z,18.50
2022-10-25T09:26:41.646Z,18.60
2022-10-25T09:29:24.518Z,18.60
2022-10-25T09:31:58.676Z,18.80
2022-10-25T09:34:32.904Z,18.90
2022-10-25T09:37:07.344Z,18.90
2022-10-25T09:39:39.891Z,18.70
2022-10-25T09:42:15.816Z,18.60
2022-10-25T09:44:47.904Z,18.60
2022-10-25T09:47:25.238Z,18.80
2022-10-25T09:49:58.917Z,19.00
2022-10-25T09:52:34.516Z,19.10
2022-10-25T09:55:23.554Z,19.30
2022-10-25T09:57:51.591Z,19.40
2022-10-25T10:00:19.728Z,19.50
2022-10-25T10:02:49.183Z,19.40
2022-10-25T10:05:19.548Z,19.60
2022-10-25T10:07:49.289Z,19.70
2022-10-25T10:10:21.058Z,19.70
2022-10-25T10:12:54.433Z,19.90
2022-10-25T10:15:26.958Z,20.00
2022-10-25T10:18:25.873Z,19.90
2022-10-25T10:21:03.061Z,19.90
2022-10-25T10:23:33.937Z,19.90
2022-10-25T10:26:09.729Z,20.00
2022-10-25T10:28:37.943Z,20.00
2022-10-25T10:31:08.867Z,20.10
2022-10-25T10:33:39.799Z,20.10
2022-10-25T10:36:28.097Z,20.10
2022-10-25T10:39:13.553Z,20.20
2022-10-25T10:42:03.051Z,20.20
2022-10-25T10:44:34.466Z,20.40
2022-10-25T10:47:03.455Z,20.50
2022-10-25T10:49:38.643Z,20.60
2022-10-25T10:52:07.393Z,20.50
2022-10-25T10:54:38.268Z,20.50
2022-10-25T10:57:08.207Z,20.40
2022-10-25T10:59:42.495Z,20.50
2022-10-25T11:02:38.629Z,20.60
2022-10-25T11:05:23.374Z,20.80
2022-10-25T11:07:57.901Z,20.70
2022-10-25T11:10:29.063Z,20.60
2022-10-25T11:13:12.369Z,20.90
2022-10-25T11:16:29.611Z,20.80
2022-10-25T11:19:15.521Z,20.90
2022-10-25T11:21:58.641Z,21.00
2022-10-25T11:24:34.702Z,20.90
2022-10-25T11:27:14.347Z,20.90
2022-10-25T11:29:55.307Z,21.00
2022-10-25T11:33:05.669Z,21.10
2022-10-25T11:35:48.997Z,21.10
2022-10-25T11:38:28.306Z,21.10
2022-10-25T11:43:50.402Z,21.40
2022-10-25T11:46:29.037Z,21.30
2022-10-25T11:49:32.861Z,21.20
2022-10-25T11:52:27.080Z,21.20
2022-10-25T11:55:05.927Z,21.20
2022-10-25T11:57:41.853Z,21.10
2022-10-25T12:00:17.410Z,21.10
2022-10-25T12:03:04.486Z,21.20
2022-10-25T12:05:42.421Z,21.20
2022-10-25T12:08:30.974Z,21.20
2022-10-25T12:11:05.623Z,21.30
2022-10-25T12:13:37.214Z,21.20
2022-10-25T12:16:10.717Z,21.20
2022-10-25T12:18:41.464Z,21.30
2022-10-25T12:21:12.391Z,21.40
2022-10-25T12:23:43.990Z,21.50
2022-10-25T12:26:22.345Z,21.50
2022-10-25T12:28:51.252Z,21.40
2022-10-25T12:31:23.079Z,21.50
2022-10-25T12:33:56.380Z,21.40
2022-10-25T12:36:32.451Z,21.50
2022-10-25T12:39:03.195Z,21.50
2022-10-25T12:41:37.129Z,21.60
2022-10-25T12:44:30.146Z,21.60
2022-10-25T12:47:18.187Z,21.60
2022-10-25T12:50:23.067Z,21.70
2022-10-25T12:53:24.729Z,21.80
2022-10-25T12:56:02.196Z,21.70
2022-10-25T12:58:49.424Z,21.60
2022-10-25T13:01:39.999Z,21.80
2022-10-25T13:04:52.932Z,21.70
2022-10-25T13:07:22.902Z,21.70
2022-10-25T13:09:51.619Z,21.70
2022-10-25T13:12:26.271Z,21.70
2022-10-25T13:14:58.195Z,21.80
2022-10-25T13:17:48.298Z,21.90
2022-10-25T13:20:48.609Z,21.80
2022-10-25T13:24:00.045Z,21.90
2022-10-25T13:26:33.780Z,22.00
2022-10-25T13:29:04.378Z,22.00
2022-10-25T13:32:08.899Z,22.00
2022-10-25T13:34:39.765Z,22.00
2022-10-25T13:37:44.827Z,22.00
2022-10-25T13:40:26.096Z,22.10
2022-10-25T13:43:03.812Z,21.80
2022-10-25T13:45:39.197Z,21.70
2022-10-25T13:48:30.415Z,21.80
2022-10-25T13:51:00.979Z,21.70
2022-10-25T13:53:37.707Z,21.70
2022-10-25T13:56:08.076Z,21.80
2022-10-25T13:58:45.040Z,22.00
2022-10-25T14:01:55.840Z,22.00
2022-10-25T14:04:39.686Z,22.10
2022-10-25T14:07:50.909Z,22.20
2022-10-25T14:10:26.711Z,22.10
2022-10-25T14:13:01.172Z,22.00
2022-10-25T14:15:40.773Z,22.10
2022-10-25T14:18:16.076Z,22.00
2022-10-25T14:20:49.510Z,22.00
2022-10-25T14:23:22.148Z,22.10
2022-10-25T14:25:52.787Z,22.10
2022-10-25T14:28:24.468Z,22.10
2022-10-25T14:30:56.067Z,22.00
2022-10-25T14:33:30.449Z,22.10
2022-10-25T14:36:09.011Z,22.20
2022-10-25T14:38:50.961Z,22.10
2022-10-25T14:41:23.977Z,21.90
2022-10-25T14:43:52.504Z,22.00
2022-10-25T14:46:21.576Z,21.90
2022-10-25T14:48:50.964Z,22.00
2022-10-25T14:51:22.848Z,21.90
2022-10-25T14:53:57.660Z,21.80
2022-10-25T14:56:29.794Z,21.90
2022-10-25T14:58:58.148Z,22.00
2022-10-25T15:01:26.853Z,21.90
2022-10-25T15:03:57.865Z,21.90
2022-10-25T15:06:30.062Z,21.80
2022-10-25T15:09:29.775Z,21.80
2022-10-25T15:12:15.284Z,21.70
2022-10-25T15:14:43.521Z,21.70
2022-10-25T15:17:27.404Z,21.70
2022-10-25T15:20:00.931Z,21.70
2022-10-25T15:22:33.227Z,21.60
2022-10-25T15:25:01.227Z,21.50
2022-10-25T15:27:35.300Z,21.40
2022-10-25T15:30:04.721Z,21.40
2022-10-25T15:32:34.165Z,21.30
2022-10-25T15:35:03.300Z,21.30
2022-10-25T15:37:32.629Z,21.30
2022-10-25T15:40:01.101Z,21.30
2022-10-25T15:42:29.221Z,20.90
2022-10-25T15:44:57.250Z,20.90
2022-10-25T15:47:31.078Z,21.00
2022-10-25T15:49:59.803Z,21.00
2022-10-25T15:52:27.763Z,21.00
2022-10-25T15:54:57.173Z,21.00
2022-10-25T15:57:27.304Z,21.00
2022-10-25T15:59:55.374Z,21.00
2022-10-25T16:02:27.107Z,20.90
2022-10-25T16:04:55.225Z,21.00
2022-10-25T16:07:24.373Z,20.90
2022-10-25T16:09:52.404Z,20.80
2022-10-25T16:12:24.762Z,20.80
2022-10-25T16:14:54.768Z,20.70
2022-10-25T16:17:22.692Z,20.60
2022-10-25T16:19:50.624Z,20.60
2022-10-25T16:22:18.520Z,20.60
2022-10-25T16:24:46.476Z,20.50
2022-10-25T16:27:16.054Z,20.40
2022-10-25T16:29:47.052Z,20.40
2022-10-25T16:32:15.027Z,20.30
2022-10-25T16:34:46.008Z,20.30
2022-10-25T16:37:13.975Z,20.40
2022-10-25T16:39:41.978Z,20.40
2022-10-25T16:42:27.191Z,20.40
2022-10-25T16:44:56.699Z,20.20
2022-10-25T16:47:24.973Z,20.20
2022-10-25T16:49:53.237Z,20.10
2022-10-25T16:52:22.047Z,20.10
2022-10-25T16:54:49.997Z,20.10
2022-10-25T16:57:17.962Z,20.00
2022-10-25T16:59:46.135Z,20.00
2022-10-25T17:02:19.108Z,20.00
2022-10-25T17:04:48.400Z,20.00
2022-10-25T17:07:16.534Z,20.10
2022-10-25T17:09:44.564Z,20.00
2022-10-25T17:12:13.283Z,20.00
2022-10-25T17:14:41.286Z,20.00
2022-10-25T17:17:09.266Z,20.10
2022-10-25T17:19:38.680Z,20.00
2022-10-25T17:22:06.876Z,20.00
2022-10-25T17:24:37.470Z,19.90
2022-10-25T17:29:38.502Z,19.80
2022-10-25T17:32:06.858Z,19.90
2022-10-25T17:34:34.811Z,19.90
2022-10-25T17:37:04.219Z,19.90
2022-10-25T17:39:32.306Z,19.90
2022-10-25T17:42:00.225Z,19.90
2022-10-25T17:44:29.155Z,19.80
2022-10-25T17:46:59.551Z,19.80
2022-10-25T17:49:30.231Z,19.80
2022-10-25T17:51:58.442Z,19.90
2022-10-25T17:54:27.756Z,19.90
2022-10-25T17:56:58.565Z,19.80
2022-10-25T17:59:27.747Z,19.80
2022-10-25T18:01:55.819Z,19.70
2022-10-25T18:04:24.093Z,19.80
2022-10-25T18:06:52.085Z,19.70
2022-10-25T18:09:20.206Z,19.70
2022-10-25T18:11:49.620Z,19.70
2022-10-25T18:14:17.541Z,19.70
2022-10-25T18:16:45.652Z,19.70
2022-10-25T18:19:15.255Z,19.60
2022-10-25T18:21:43.357Z,19.60
2022-10-25T18:24:14.273Z,19.60
2022-10-25T18:26:42.243Z,19.60
2022-10-25T18:29:12.195Z,19.50
2022-10-25T18:31:40.108Z,19.50
2022-10-25T18:34:08.063Z,19.50
2022-10-25T18:36:36.059Z,19.60
2022-10-25T18:39:04.622Z,19.70
2022-10-25T18:44:26.342Z,19.40
2022-10-25T18:46:55.893Z,19.40
2022-10-25T18:49:23.831Z,19.20
2022-10-25T18:51:51.822Z,19.30
2022-10-25T18:54:19.767Z,19.30
2022-10-25T18:56:47.697Z,19.20
2022-10-25T18:59:15.649Z,19.00
2022-10-25T19:01:45.195Z,19.00
2022-10-25T19:04:13.222Z,18.90
2022-10-25T19:06:41.167Z,18.90
2022-10-25T19:09:10.061Z,19.00
2022-10-25T19:11:37.984Z,19.00
2022-10-25T19:14:06.852Z,19.20
2022-10-25T19:16:35.866Z,19.20
2022-10-25T19:19:07.042Z,19.20
2022-10-25T19:21:35.168Z,19.10
2022-10-25T19:24:03.148Z,19.20
2022-10-25T19:26:31.460Z,19.20
2022-10-25T19:29:01.029Z,18.90
2022-10-25T19:31:29.615Z,18.90
2022-10-25T19:34:00.197Z,18.90
2022-10-25T19:36:30.065Z,19.00
2022-10-25T19:38:58.108Z,18.90
2022-10-25T19:41:26.712Z,18.90
2022-10-25T19:43:56.399Z,18.90
2022-10-25T19:46:24.597Z,18.80
2022-10-25T19:48:56.189Z,18.90
2022-10-25T19:51:24.172Z,18.90
2022-10-25T19:53:53.516Z,18.90
2022-10-25T19:56:23.072Z,18.90
2022-10-25T19:58:51.529Z,19.00
2022-10-25T20:01:21.320Z,19.00
2022-10-25T20:03:51.444Z,19.00
2022-10-25T20:06:24.604Z,19.00
2022-10-25T20:08:55.106Z,19.00
2022-10-25T20:11:24.485Z,18.80
2022-10-25T20:13:54.249Z,18.30
2022-10-25T20:16:22.399Z,18.20
2022-10-25T20:18:50.636Z,18.30
2022-10-25T20:21:20.618Z,18.30
2022-10-25T20:23:50.707Z,18.50
2022-10-25T20:26:22.398Z,18.50
2022-10-25T20:28:52.699Z,18.60
2022-10-25T20:31:22.894Z,18.50
2022-10-25T20:33:51.729Z,18.10
2022-10-25T20:36:19.848Z,18.30
2022-10-25T20:38:48.084Z,18.40
2022-10-25T20:41:17.376Z,18.50
2022-10-25T20:43:50.089Z,18.60
2022-10-25T20:46:19.296Z,18.00
2022-10-25T20:48:47.405Z,18.00
2022-10-25T20:51:16.620Z,18.00
2022-10-25T20:53:45.646Z,18.00
2022-10-25T20:56:14.285Z,18.10
2022-10-25T20:58:42.880Z,18.20
2022-10-25T21:01:12.855Z,18.30
2022-10-25T21:03:41.320Z,17.90
2022-10-25T21:06:12.306Z,17.80
2022-10-25T21:08:40.798Z,17.60
2022-10-25T21:11:13.297Z,17.60
2022-10-25T21:13:41.729Z,17.60
2022-10-25T21:16:12.963Z,17.60
2022-10-25T21:18:41.676Z,17.80
2022-10-25T21:21:11.170Z,17.80
2022-10-25T21:23:39.134Z,17.80
2022-10-25T21:26:09.435Z,17.70
2022-10-25T21:28:39.358Z,17.70
2022-10-25T21:31:08.827Z,17.70
2022-10-25T21:33:38.743Z,17.90
2022-10-25T21:36:08.433Z,17.60
2022-10-25T21:38:36.902Z,17.50
2022-10-25T21:41:09.474Z,17.20
2022-10-25T21:43:37.567Z,17.40
2022-10-25T21:46:06.613Z,17.50
2022-10-25T21:48:35.659Z,17.60
2022-10-25T21:51:05.326Z,17.80
2022-10-25T21:53:33.334Z,17.60
2022-10-25T21:56:11.303Z,17.60
2022-10-25T21:58:39.726Z,17.60
2022-10-25T22:01:09.239Z,17.60
2022-10-25T22:03:37.282Z,17.80
2022-10-25T22:06:08.818Z,17.80
2022-10-25T22:08:36.849Z,17.90
2022-10-25T22:11:08.092Z,17.80
2022-10-25T22:13:36.123Z,17.90
2022-10-25T22:16:06.658Z,18.00
2022-10-25T22:18:34.846Z,18.00
2022-10-25T22:21:04.478Z,18.00
2022-10-25T22:23:34.500Z,18.10
2022-10-25T22:26:03.519Z,18.00
2022-10-25T22:28:34.229Z,18.10
2022-10-25T22:31:07.058Z,18.20
2022-10-25T22:33:35.923Z,18.10
2022-10-25T22:38:38.665Z,17.80
2022-10-25T22:41:08.523Z,17.90
2022-10-25T22:43:37.426Z,18.00
2022-10-25T22:46:08.270Z,18.00
2022-10-25T22:48:37.866Z,17.90
2022-10-25T22:51:06.708Z,17.90
2022-10-25T22:53:36.071Z,17.90
2022-10-25T22:56:07.362Z,17.90
2022-10-25T22:58:38.134Z,17.70
2022-10-25T23:01:07.945Z,17.70
2022-10-25T23:03:36.829Z,17.60
2022-10-25T23:06:06.425Z,17.60
2022-10-25T23:08:34.531Z,17.50
2022-10-25T23:11:03.910Z,17.40
2022-10-25T23:13:35.660Z,17.60
2022-10-25T23:16:04.692Z,17.60
2022-10-25T23:18:33.541Z,17.50
2022-10-25T23:21:03.272Z,17.50
2022-10-25T23:23:34.993Z,17.50
2022-10-25T23:26:03.446Z,17.40
2022-10-25T23:28:33.915Z,17.30
2022-10-25T23:31:06.536Z,17.40
2022-10-25T23:33:35.074Z,17.50
2022-10-25T23:36:03.851Z,17.60
2022-10-25T23:38:32.072Z,17.50
2022-10-25T23:41:00.038Z,17.40
2022-10-25T23:43:28.536Z,17.60
2022-10-25T23:45:57.854Z,17.70
2022-10-25T23:48:26.060Z,17.70
2022-10-25T23:50:58.523Z,17.80
2022-10-25T23:53:27.181Z,17.90
2022-10-25T23:55:56.369Z,17.90
2022-10-25T23:58:24.872Z,17.80
